sensor_id;sensor_type;location;lat;lon;timestamp;temperature;humidity
3334;DHT22;1679;50.392;8.008;2023-12-29T00:01:16;8.80;99.90
3334;DHT22;1679;50.392;8.008;2023-12-29T00:03:42;8.80;99.90
3334;DHT22;1679;50.392;8.008;2023-12-29T00:06:07;8.80;99.90
3334;DHT22;1679;50.392;8.008;2023-12-29T00:08:33;8.70;99.90
3334;DHT22;1679;50.392;8.008;2023-12-29T00:10:59;8.70;99.90
3334;DHT22;1679;50.392;8.008;2023-12-29T00:13:24;8.60;99.90
3334;DHT22;1679;50.392;8.008;2023-12-29T00:15:54;8.60;99.90
3334;DHT22;1679;50.392;8.008;2023-12-29T00:18:22;8.60;99.90
3334;DHT22;1679;50.392;8.008;2023-12-29T00:20:48;8.50;99.90
3334;DHT22;1679;50.392;8.008;2023-12-29T00:23:14;8.50;99.90
3334;DHT22;1679;50.392;8.008;2023-12-29T00:25:40;8.40;99.90
3334;DHT22;1679;50.392;8.008;2023-12-29T00:28:05;8.40;99.90
3334;DHT22;1679;50.392;8.008;2023-12-29T00:30:31;8.40;99.90
3334;DHT22;1679;50.392;8.008;2023-12-29T00:32:57;8.40;99.90
3334;DHT22;1679;50.392;8.008;2023-12-29T00:35:23;8.50;99.90
3334;DHT22;1679;50.392;8.008;2023-12-29T00:37:51;8.50;99.90
3334;DHT22;1679;50.392;8.008;2023-12-29T00:40:17;8.40;99.90
3334;DHT22;1679;50.392;8.008;2023-12-29T00:42:42;8.40;99.90
3334;DHT22;1679;50.392;8.008;2023-12-29T00:45:08;8.40;99.90
3334;DHT22;1679;50.392;8.008;2023-12-29T00:47:34;8.40;99.90
3334;DHT22;1679;50.392;8.008;2023-12-29T00:50:00;8.30;99.90
3334;DHT22;1679;50.392;8.008;2023-12-29T00:52:27;8.40;99.90
3334;DHT22;1679;50.392;8.008;2023-12-29T00:54:53;8.40;99.90
3334;DHT22;1679;50.392;8.008;2023-12-29T00:57:18;8.40;99.90
3334;DHT22;1679;50.392;8.008;2023-12-29T00:59:46;8.40;99.90
3334;DHT22;1679;50.392;8.008;2023-12-29T01:02:12;8.50;99.90
3334;DHT22;1679;50.392;8.008;2023-12-29T01:04:38;8.50;99.90
3334;DHT22;1679;50.392;8.008;2023-12-29T01:07:05;8.60;99.90
3334;DHT22;1679;50.392;8.008;2023-12-29T01:09:30;8.70;99.90
3334;DHT22;1679;50.392;8.008;2023-12-29T01:11:56;8.70;99.90
3334;DHT22;1679;50.392;8.008;2023-12-29T01:14:23;8.80;99.90
3334;DHT22;1679;50.392;8.008;2023-12-29T01:16:49;8.80;99.90
3334;DHT22;1679;50.392;8.008;2023-12-29T01:19:15;8.90;99.90
3334;DHT22;1679;50.392;8.008;2023-12-29T01:21:40;8.90;99.90
3334;DHT22;1679;50.392;8.008;2023-12-29T01:24:07;8.90;99.90
3334;DHT22;1679;50.392;8.008;2023-12-29T01:26:37;8.90;99.90
3334;DHT22;1679;50.392;8.008;2023-12-29T01:29:03;8.90;99.90
3334;DHT22;1679;50.392;8.008;2023-12-29T01:31:30;8.90;99.90
3334;DHT22;1679;50.392;8.008;2023-12-29T01:33:59;8.90;99.90
3334;DHT22;1679;50.392;8.008;2023-12-29T01:36:24;8.90;99.90
3334;DHT22;1679;50.392;8.008;2023-12-29T01:38:50;8.90;99.90
3334;DHT22;1679;50.392;8.008;2023-12-29T01:41:15;8.90;99.90
3334;DHT22;1679;50.392;8.008;2023-12-29T01:46:24;8.80;99.90
3334;DHT22;1679;50.392;8.008;2023-12-29T01:48:50;8.80;99.90
3334;DHT22;1679;50.392;8.008;2023-12-29T01:51:17;8.80;99.90
3334;DHT22;1679;50.392;8.008;2023-12-29T01:53:43;8.70;99.90
3334;DHT22;1679;50.392;8.008;2023-12-29T01:56:09;8.80;99.90
3334;DHT22;1679;50.392;8.008;2023-12-29T01:58:35;8.80;99.90
3334;DHT22;1679;50.392;8.008;2023-12-29T02:01:01;8.80;99.90
3334;DHT22;1679;50.392;8.008;2023-12-29T02:03:27;8.70;99.90
3334;DHT22;1679;50.392;8.008;2023-12-29T02:05:54;8.70;99.90
3334;DHT22;1679;50.392;8.008;2023-12-29T02:08:23;8.70;99.90
3334;DHT22;1679;50.392;8.008;2023-12-29T02:10:49;8.70;99.90
3334;DHT22;1679;50.392;8.008;2023-12-29T02:13:14;8.70;99.90
3334;DHT22;1679;50.392;8.008;2023-12-29T02:15:40;8.70;99.90
3334;DHT22;1679;50.392;8.008;2023-12-29T02:18:08;8.80;99.90
3334;DHT22;1679;50.392;8.008;2023-12-29T02:20:36;8.80;99.90
3334;DHT22;1679;50.392;8.008;2023-12-29T02:23:02;8.90;99.90
3334;DHT22;1679;50.392;8.008;2023-12-29T02:25:28;8.80;99.90
3334;DHT22;1679;50.392;8.008;2023-12-29T02:28:15;8.80;99.90
3334;DHT22;1679;50.392;8.008;2023-12-29T02:31:05;8.80;99.90
3334;DHT22;1679;50.392;8.008;2023-12-29T02:33:36;8.90;99.90
3334;DHT22;1679;50.392;8.008;2023-12-29T02:36:02;8.90;99.90
3334;DHT22;1679;50.392;8.008;2023-12-29T02:38:29;8.90;99.90
3334;DHT22;1679;50.392;8.008;2023-12-29T02:40:58;9.10;99.90
3334;DHT22;1679;50.392;8.008;2023-12-29T02:43:24;9.10;99.90
3334;DHT22;1679;50.392;8.008;2023-12-29T02:45:49;9.10;99.90
3334;DHT22;1679;50.392;8.008;2023-12-29T02:48:16;9.10;99.90
3334;DHT22;1679;50.392;8.008;2023-12-29T02:50:41;9.10;99.90
3334;DHT22;1679;50.392;8.008;2023-12-29T02:53:07;9.10;99.90
3334;DHT22;1679;50.392;8.008;2023-12-29T02:55:33;9.10;99.90
3334;DHT22;1679;50.392;8.008;2023-12-29T02:57:59;9.10;99.90
3334;DHT22;1679;50.392;8.008;2023-12-29T03:00:24;9.10;99.90
3334;DHT22;1679;50.392;8.008;2023-12-29T03:02:50;9.10;99.90
3334;DHT22;1679;50.392;8.008;2023-12-29T03:05:15;9.10;99.90
3334;DHT22;1679;50.392;8.008;2023-12-29T03:07:41;9.10;99.90
3334;DHT22;1679;50.392;8.008;2023-12-29T03:10:08;9.20;99.90
3334;DHT22;1679;50.392;8.008;2023-12-29T03:12:34;9.20;99.90
3334;DHT22;1679;50.392;8.008;2023-12-29T03:14:59;9.20;99.90
3334;DHT22;1679;50.392;8.008;2023-12-29T03:17:25;9.20;99.90
3334;DHT22;1679;50.392;8.008;2023-12-29T03:19:51;9.10;99.90
3334;DHT22;1679;50.392;8.008;2023-12-29T03:22:17;9.10;99.90
3334;DHT22;1679;50.392;8.008;2023-12-29T03:24:43;9.10;99.90
3334;DHT22;1679;50.392;8.008;2023-12-29T03:27:08;9.20;99.90
3334;DHT22;1679;50.392;8.008;2023-12-29T03:29:34;9.20;99.90
3334;DHT22;1679;50.392;8.008;2023-12-29T03:31:59;9.20;99.90
3334;DHT22;1679;50.392;8.008;2023-12-29T03:34:25;9.20;99.90
3334;DHT22;1679;50.392;8.008;2023-12-29T03:36:50;9.20;99.90
3334;DHT22;1679;50.392;8.008;2023-12-29T03:39:17;9.20;99.90
3334;DHT22;1679;50.392;8.008;2023-12-29T03:41:43;9.30;99.90
3334;DHT22;1679;50.392;8.008;2023-12-29T03:44:09;9.30;99.90
3334;DHT22;1679;50.392;8.008;2023-12-29T03:46:36;9.20;99.90
3334;DHT22;1679;50.392;8.008;2023-12-29T03:49:02;9.30;99.90
3334;DHT22;1679;50.392;8.008;2023-12-29T03:51:28;9.30;99.90
3334;DHT22;1679;50.392;8.008;2023-12-29T03:53:54;9.40;99.90
3334;DHT22;1679;50.392;8.008;2023-12-29T03:56:19;9.40;99.90
3334;DHT22;1679;50.392;8.008;2023-12-29T03:58:46;9.50;99.90
3334;DHT22;1679;50.392;8.008;2023-12-29T04:01:16;9.50;99.90
3334;DHT22;1679;50.392;8.008;2023-12-29T04:03:43;9.50;99.90
3334;DHT22;1679;50.392;8.008;2023-12-29T04:06:09;9.50;99.90
3334;DHT22;1679;50.392;8.008;2023-12-29T04:08:36;9.50;99.90
3334;DHT22;1679;50.392;8.008;2023-12-29T04:11:02;9.50;99.90
3334;DHT22;1679;50.392;8.008;2023-12-29T04:13:29;9.50;99.90
3334;DHT22;1679;50.392;8.008;2023-12-29T04:15:54;9.50;99.90
3334;DHT22;1679;50.392;8.008;2023-12-29T04:18:21;9.50;99.90
3334;DHT22;1679;50.392;8.008;2023-12-29T04:20:47;9.50;99.90
3334;DHT22;1679;50.392;8.008;2023-12-29T04:23:12;9.60;99.90
3334;DHT22;1679;50.392;8.008;2023-12-29T04:25:39;9.60;99.90
3334;DHT22;1679;50.392;8.008;2023-12-29T04:28:06;9.50;99.90
3334;DHT22;1679;50.392;8.008;2023-12-29T04:30:32;9.50;99.90
3334;DHT22;1679;50.392;8.008;2023-12-29T04:32:59;9.50;99.90
3334;DHT22;1679;50.392;8.008;2023-12-29T04:35:24;9.50;99.90
3334;DHT22;1679;50.392;8.008;2023-12-29T04:37:50;9.50;99.90
3334;DHT22;1679;50.392;8.008;2023-12-29T04:40:17;9.50;99.90
3334;DHT22;1679;50.392;8.008;2023-12-29T04:42:42;9.50;99.90
3334;DHT22;1679;50.392;8.008;2023-12-29T04:45:08;9.50;99.90
3334;DHT22;1679;50.392;8.008;2023-12-29T04:47:33;9.50;99.90
3334;DHT22;1679;50.392;8.008;2023-12-29T04:50:00;9.50;99.90
3334;DHT22;1679;50.392;8.008;2023-12-29T04:52:27;9.50;99.90
3334;DHT22;1679;50.392;8.008;2023-12-29T04:54:52;9.50;99.90
3334;DHT22;1679;50.392;8.008;2023-12-29T04:57:18;9.50;99.90
3334;DHT22;1679;50.392;8.008;2023-12-29T04:59:43;9.50;99.90
3334;DHT22;1679;50.392;8.008;2023-12-29T05:02:09;9.50;99.90
3334;DHT22;1679;50.392;8.008;2023-12-29T05:04:34;9.50;99.90
3334;DHT22;1679;50.392;8.008;2023-12-29T05:07:00;9.50;99.90
3334;DHT22;1679;50.392;8.008;2023-12-29T05:09:25;9.50;99.90
3334;DHT22;1679;50.392;8.008;2023-12-29T05:11:51;9.60;99.90
3334;DHT22;1679;50.392;8.008;2023-12-29T05:14:16;9.50;99.90
3334;DHT22;1679;50.392;8.008;2023-12-29T05:16:42;9.50;99.90
3334;DHT22;1679;50.392;8.008;2023-12-29T05:19:08;9.50;99.90
3334;DHT22;1679;50.392;8.008;2023-12-29T05:21:34;9.50;99.90
3334;DHT22;1679;50.392;8.008;2023-12-29T05:23:59;9.50;99.90
3334;DHT22;1679;50.392;8.008;2023-12-29T05:26:25;9.50;99.90
3334;DHT22;1679;50.392;8.008;2023-12-29T05:28:51;9.50;99.90
3334;DHT22;1679;50.392;8.008;2023-12-29T05:31:16;9.50;99.90
3334;DHT22;1679;50.392;8.008;2023-12-29T05:33:43;9.40;99.90
3334;DHT22;1679;50.392;8.008;2023-12-29T05:36:10;9.40;99.90
3334;DHT22;1679;50.392;8.008;2023-12-29T05:38:36;9.40;99.90
3334;DHT22;1679;50.392;8.008;2023-12-29T05:41:03;9.40;99.90
3334;DHT22;1679;50.392;8.008;2023-12-29T05:43:31;9.40;99.90
3334;DHT22;1679;50.392;8.008;2023-12-29T05:45:58;9.40;99.90
3334;DHT22;1679;50.392;8.008;2023-12-29T05:48:24;9.40;99.90
3334;DHT22;1679;50.392;8.008;2023-12-29T05:50:50;9.40;99.90
3334;DHT22;1679;50.392;8.008;2023-12-29T05:53:15;9.40;99.90
3334;DHT22;1679;50.392;8.008;2023-12-29T05:55:41;9.40;99.90
3334;DHT22;1679;50.392;8.008;2023-12-29T05:58:07;9.40;99.90
3334;DHT22;1679;50.392;8.008;2023-12-29T06:00:32;9.40;99.90
3334;DHT22;1679;50.392;8.008;2023-12-29T06:02:59;9.40;99.90
3334;DHT22;1679;50.392;8.008;2023-12-29T06:05:25;9.40;99.90
3334;DHT22;1679;50.392;8.008;2023-12-29T06:07:50;9.40;99.90
3334;DHT22;1679;50.392;8.008;2023-12-29T06:10:16;9.40;99.90
3334;DHT22;1679;50.392;8.008;2023-12-29T06:12:41;9.40;99.90
3334;DHT22;1679;50.392;8.008;2023-12-29T06:15:07;9.40;99.90
3334;DHT22;1679;50.392;8.008;2023-12-29T06:17:33;9.40;99.90
3334;DHT22;1679;50.392;8.008;2023-12-29T06:20:01;9.40;99.90
3334;DHT22;1679;50.392;8.008;2023-12-29T06:22:27;9.40;99.90
3334;DHT22;1679;50.392;8.008;2023-12-29T06:24:54;9.40;99.90
3334;DHT22;1679;50.392;8.008;2023-12-29T06:27:19;9.40;99.90
3334;DHT22;1679;50.392;8.008;2023-12-29T06:29:45;9.40;99.90
3334;DHT22;1679;50.392;8.008;2023-12-29T06:32:10;9.40;99.90
3334;DHT22;1679;50.392;8.008;2023-12-29T06:34:36;9.40;99.90
3334;DHT22;1679;50.392;8.008;2023-12-29T06:37:01;9.40;99.90
3334;DHT22;1679;50.392;8.008;2023-12-29T06:39:27;9.40;99.90
3334;DHT22;1679;50.392;8.008;2023-12-29T06:41:52;9.40;99.90
3334;DHT22;1679;50.392;8.008;2023-12-29T06:44:19;9.40;99.90
3334;DHT22;1679;50.392;8.008;2023-12-29T06:46:45;9.40;99.90
3334;DHT22;1679;50.392;8.008;2023-12-29T06:49:10;9.40;99.90
3334;DHT22;1679;50.392;8.008;2023-12-29T06:51:36;9.40;99.90
3334;DHT22;1679;50.392;8.008;2023-12-29T06:54:04;9.40;99.90
3334;DHT22;1679;50.392;8.008;2023-12-29T06:56:29;9.40;99.90
3334;DHT22;1679;50.392;8.008;2023-12-29T06:58:56;9.40;99.90
3334;DHT22;1679;50.392;8.008;2023-12-29T07:01:23;9.40;99.90
3334;DHT22;1679;50.392;8.008;2023-12-29T07:03:49;9.40;99.90
3334;DHT22;1679;50.392;8.008;2023-12-29T07:06:15;9.40;99.90
3334;DHT22;1679;50.392;8.008;2023-12-29T07:08:41;9.40;99.90
3334;DHT22;1679;50.392;8.008;2023-12-29T07:11:10;9.40;99.90
3334;DHT22;1679;50.392;8.008;2023-12-29T07:13:37;9.50;99.90
3334;DHT22;1679;50.392;8.008;2023-12-29T07:16:02;9.40;99.90
3334;DHT22;1679;50.392;8.008;2023-12-29T07:18:28;9.50;99.90
3334;DHT22;1679;50.392;8.008;2023-12-29T07:20:53;9.50;99.90
3334;DHT22;1679;50.392;8.008;2023-12-29T07:23:19;9.50;99.90
3334;DHT22;1679;50.392;8.008;2023-12-29T07:25:44;9.50;99.90
3334;DHT22;1679;50.392;8.008;2023-12-29T07:28:10;9.50;99.90
3334;DHT22;1679;50.392;8.008;2023-12-29T07:30:36;9.50;99.90
3334;DHT22;1679;50.392;8.008;2023-12-29T07:33:02;9.50;99.90
3334;DHT22;1679;50.392;8.008;2023-12-29T07:35:29;9.50;99.90
3334;DHT22;1679;50.392;8.008;2023-12-29T07:37:55;9.50;99.90
3334;DHT22;1679;50.392;8.008;2023-12-29T07:40:21;9.50;99.90
3334;DHT22;1679;50.392;8.008;2023-12-29T07:42:47;9.50;99.90
3334;DHT22;1679;50.392;8.008;2023-12-29T07:45:16;9.60;99.90
3334;DHT22;1679;50.392;8.008;2023-12-29T07:47:41;9.50;99.90
3334;DHT22;1679;50.392;8.008;2023-12-29T07:50:07;9.50;99.90
3334;DHT22;1679;50.392;8.008;2023-12-29T07:52:32;9.60;99.90
3334;DHT22;1679;50.392;8.008;2023-12-29T07:54:59;9.70;99.90
3334;DHT22;1679;50.392;8.008;2023-12-29T07:57:25;9.70;99.90
3334;DHT22;1679;50.392;8.008;2023-12-29T07:59:50;9.70;99.90
3334;DHT22;1679;50.392;8.008;2023-12-29T08:02:16;9.70;99.90
3334;DHT22;1679;50.392;8.008;2023-12-29T08:04:42;9.70;99.90
3334;DHT22;1679;50.392;8.008;2023-12-29T08:07:07;9.70;99.90
3334;DHT22;1679;50.392;8.008;2023-12-29T08:09:33;9.70;99.90
3334;DHT22;1679;50.392;8.008;2023-12-29T08:11:58;9.80;99.90
3334;DHT22;1679;50.392;8.008;2023-12-29T08:14:24;9.80;99.90
3334;DHT22;1679;50.392;8.008;2023-12-29T08:16:49;9.80;99.90
3334;DHT22;1679;50.392;8.008;2023-12-29T08:19:16;9.80;99.90
3334;DHT22;1679;50.392;8.008;2023-12-29T08:21:42;9.80;99.90
3334;DHT22;1679;50.392;8.008;2023-12-29T08:24:07;9.80;99.90
3334;DHT22;1679;50.392;8.008;2023-12-29T08:26:34;9.80;99.90
3334;DHT22;1679;50.392;8.008;2023-12-29T08:28:59;9.80;99.90
3334;DHT22;1679;50.392;8.008;2023-12-29T08:31:25;9.80;99.90
3334;DHT22;1679;50.392;8.008;2023-12-29T08:33:51;9.80;99.90
3334;DHT22;1679;50.392;8.008;2023-12-29T08:36:20;9.80;99.90
3334;DHT22;1679;50.392;8.008;2023-12-29T08:38:46;9.80;99.90
3334;DHT22;1679;50.392;8.008;2023-12-29T08:41:15;9.80;99.90
3334;DHT22;1679;50.392;8.008;2023-12-29T08:43:41;9.80;99.90
3334;DHT22;1679;50.392;8.008;2023-12-29T08:46:06;9.80;99.90
3334;DHT22;1679;50.392;8.008;2023-12-29T08:48:32;9.90;99.90
3334;DHT22;1679;50.392;8.008;2023-12-29T08:50:57;9.90;99.90
3334;DHT22;1679;50.392;8.008;2023-12-29T08:53:23;9.90;99.90
3334;DHT22;1679;50.392;8.008;2023-12-29T08:55:49;9.90;99.90
3334;DHT22;1679;50.392;8.008;2023-12-29T08:58:14;9.90;99.90
3334;DHT22;1679;50.392;8.008;2023-12-29T09:00:40;9.90;99.90
3334;DHT22;1679;50.392;8.008;2023-12-29T09:03:05;9.90;99.90
3334;DHT22;1679;50.392;8.008;2023-12-29T09:05:31;9.90;99.90
3334;DHT22;1679;50.392;8.008;2023-12-29T09:07:56;9.90;99.90
3334;DHT22;1679;50.392;8.008;2023-12-29T09:10:22;9.90;99.90
3334;DHT22;1679;50.392;8.008;2023-12-29T09:12:48;9.90;99.90
3334;DHT22;1679;50.392;8.008;2023-12-29T09:15:16;9.80;99.90
3334;DHT22;1679;50.392;8.008;2023-12-29T09:17:41;9.90;99.90
3334;DHT22;1679;50.392;8.008;2023-12-29T09:20:08;9.90;99.90
3334;DHT22;1679;50.392;8.008;2023-12-29T09:22:34;9.90;99.90
3334;DHT22;1679;50.392;8.008;2023-12-29T09:24:59;9.90;99.90
3334;DHT22;1679;50.392;8.008;2023-12-29T09:27:25;9.90;99.90
3334;DHT22;1679;50.392;8.008;2023-12-29T09:29:51;9.90;99.90
3334;DHT22;1679;50.392;8.008;2023-12-29T09:32:17;10.00;99.90
3334;DHT22;1679;50.392;8.008;2023-12-29T09:34:42;9.90;99.90
3334;DHT22;1679;50.392;8.008;2023-12-29T09:37:08;10.00;99.90
3334;DHT22;1679;50.392;8.008;2023-12-29T09:39:34;9.90;99.90
3334;DHT22;1679;50.392;8.008;2023-12-29T09:42:00;10.00;99.90
3334;DHT22;1679;50.392;8.008;2023-12-29T09:44:28;10.00;99.90
3334;DHT22;1679;50.392;8.008;2023-12-29T09:47:00;10.00;99.90
3334;DHT22;1679;50.392;8.008;2023-12-29T09:49:29;10.00;99.90
3334;DHT22;1679;50.392;8.008;2023-12-29T09:51:57;10.00;99.90
3334;DHT22;1679;50.392;8.008;2023-12-29T09:54:23;10.00;99.90
3334;DHT22;1679;50.392;8.008;2023-12-29T09:56:50;10.00;99.90
3334;DHT22;1679;50.392;8.008;2023-12-29T09:59:16;10.00;99.90
3334;DHT22;1679;50.392;8.008;2023-12-29T10:01:43;10.00;99.90
3334;DHT22;1679;50.392;8.008;2023-12-29T10:04:11;10.00;99.90
3334;DHT22;1679;50.392;8.008;2023-12-29T10:06:38;10.00;99.90
3334;DHT22;1679;50.392;8.008;2023-12-29T10:09:10;10.00;99.90
3334;DHT22;1679;50.392;8.008;2023-12-29T10:11:37;10.10;99.90
3334;DHT22;1679;50.392;8.008;2023-12-29T10:14:21;10.10;99.90
3334;DHT22;1679;50.392;8.008;2023-12-29T10:16:53;10.10;99.90
3334;DHT22;1679;50.392;8.008;2023-12-29T10:19:34;10.10;99.90
3334;DHT22;1679;50.392;8.008;2023-12-29T10:22:36;10.10;99.90
3334;DHT22;1679;50.392;8.008;2023-12-29T10:25:04;10.20;99.90
3334;DHT22;1679;50.392;8.008;2023-12-29T10:27:30;10.20;99.90
3334;DHT22;1679;50.392;8.008;2023-12-29T10:29:56;10.20;99.90
3334;DHT22;1679;50.392;8.008;2023-12-29T10:32:22;10.30;99.90
3334;DHT22;1679;50.392;8.008;2023-12-29T10:34:47;10.40;99.90
3334;DHT22;1679;50.392;8.008;2023-12-29T10:37:22;10.40;99.90
3334;DHT22;1679;50.392;8.008;2023-12-29T10:39:56;10.50;99.90
3334;DHT22;1679;50.392;8.008;2023-12-29T10:42:22;10.50;99.90
3334;DHT22;1679;50.392;8.008;2023-12-29T10:44:47;10.60;99.90
3334;DHT22;1679;50.392;8.008;2023-12-29T10:47:26;10.50;99.90
3334;DHT22;1679;50.392;8.008;2023-12-29T10:49:58;10.50;99.90
3334;DHT22;1679;50.392;8.008;2023-12-29T10:52:24;10.50;99.90
3334;DHT22;1679;50.392;8.008;2023-12-29T10:54:49;10.50;99.90
3334;DHT22;1679;50.392;8.008;2023-12-29T10:57:28;10.50;99.90
3334;DHT22;1679;50.392;8.008;2023-12-29T10:59:56;10.40;99.90
3334;DHT22;1679;50.392;8.008;2023-12-29T11:02:22;10.40;99.90
3334;DHT22;1679;50.392;8.008;2023-12-29T11:04:48;10.40;99.90
3334;DHT22;1679;50.392;8.008;2023-12-29T11:07:14;10.40;99.90
3334;DHT22;1679;50.392;8.008;2023-12-29T11:09:40;10.40;99.90
3334;DHT22;1679;50.392;8.008;2023-12-29T11:12:06;10.40;99.90
3334;DHT22;1679;50.392;8.008;2023-12-29T11:14:32;10.40;99.90
3334;DHT22;1679;50.392;8.008;2023-12-29T11:16:58;10.40;99.90
3334;DHT22;1679;50.392;8.008;2023-12-29T11:19:26;10.40;99.90
3334;DHT22;1679;50.392;8.008;2023-12-29T11:21:54;10.40;99.90
3334;DHT22;1679;50.392;8.008;2023-12-29T11:24:20;10.50;99.90
3334;DHT22;1679;50.392;8.008;2023-12-29T11:26:46;10.60;99.90
3334;DHT22;1679;50.392;8.008;2023-12-29T11:29:15;10.60;99.90
3334;DHT22;1679;50.392;8.008;2023-12-29T11:31:41;10.60;99.90
3334;DHT22;1679;50.392;8.008;2023-12-29T11:34:21;10.60;99.90
3334;DHT22;1679;50.392;8.008;2023-12-29T11:36:51;10.60;99.90
3334;DHT22;1679;50.392;8.008;2023-12-29T11:39:48;10.70;99.90
3334;DHT22;1679;50.392;8.008;2023-12-29T11:42:38;10.70;99.90
3334;DHT22;1679;50.392;8.008;2023-12-29T11:45:30;10.70;99.90
3334;DHT22;1679;50.392;8.008;2023-12-29T11:48:03;10.70;99.90
3334;DHT22;1679;50.392;8.008;2023-12-29T11:50:33;10.70;99.90
3334;DHT22;1679;50.392;8.008;2023-12-29T11:52:59;10.70;99.90
3334;DHT22;1679;50.392;8.008;2023-12-29T11:55:29;10.70;99.90
3334;DHT22;1679;50.392;8.008;2023-12-29T11:57:56;10.80;99.90
3334;DHT22;1679;50.392;8.008;2023-12-29T12:00:49;10.80;99.90
3334;DHT22;1679;50.392;8.008;2023-12-29T12:03:25;10.80;99.90
3334;DHT22;1679;50.392;8.008;2023-12-29T12:05:51;10.80;99.90
3334;DHT22;1679;50.392;8.008;2023-12-29T12:08:34;10.80;99.90
3334;DHT22;1679;50.392;8.008;2023-12-29T12:14:05;10.70;99.90
3334;DHT22;1679;50.392;8.008;2023-12-29T12:19:13;10.70;99.90
3334;DHT22;1679;50.392;8.008;2023-12-29T12:21:40;10.80;99.90
3334;DHT22;1679;50.392;8.008;2023-12-29T12:24:06;10.80;99.90
3334;DHT22;1679;50.392;8.008;2023-12-29T12:26:32;10.80;99.90
3334;DHT22;1679;50.392;8.008;2023-12-29T12:28:59;10.80;99.90
3334;DHT22;1679;50.392;8.008;2023-12-29T12:31:25;10.80;99.90
3334;DHT22;1679;50.392;8.008;2023-12-29T12:33:57;10.80;99.90
3334;DHT22;1679;50.392;8.008;2023-12-29T12:36:23;10.80;99.90
3334;DHT22;1679;50.392;8.008;2023-12-29T12:38:56;10.80;99.90
3334;DHT22;1679;50.392;8.008;2023-12-29T12:41:22;10.80;99.90
3334;DHT22;1679;50.392;8.008;2023-12-29T12:44:03;10.80;99.90
3334;DHT22;1679;50.392;8.008;2023-12-29T12:46:34;10.80;99.90
3334;DHT22;1679;50.392;8.008;2023-12-29T12:49:02;10.80;99.90
3334;DHT22;1679;50.392;8.008;2023-12-29T12:51:29;10.80;99.90
3334;DHT22;1679;50.392;8.008;2023-12-29T12:53:55;10.80;99.90
3334;DHT22;1679;50.392;8.008;2023-12-29T12:56:22;10.80;99.90
3334;DHT22;1679;50.392;8.008;2023-12-29T12:58:47;10.80;99.90
3334;DHT22;1679;50.392;8.008;2023-12-29T13:01:13;10.70;99.90
3334;DHT22;1679;50.392;8.008;2023-12-29T13:03:39;10.70;99.90
3334;DHT22;1679;50.392;8.008;2023-12-29T13:06:06;10.60;99.90
3334;DHT22;1679;50.392;8.008;2023-12-29T13:08:33;10.60;99.90
3334;DHT22;1679;50.392;8.008;2023-12-29T13:10:59;10.60;99.90
3334;DHT22;1679;50.392;8.008;2023-12-29T13:13:38;10.60;99.90
3334;DHT22;1679;50.392;8.008;2023-12-29T13:16:04;10.60;99.90
3334;DHT22;1679;50.392;8.008;2023-12-29T13:18:30;10.60;99.90
3334;DHT22;1679;50.392;8.008;2023-12-29T13:21:03;10.50;99.90
3334;DHT22;1679;50.392;8.008;2023-12-29T13:23:31;10.50;99.90
3334;DHT22;1679;50.392;8.008;2023-12-29T13:25:59;10.50;99.90
3334;DHT22;1679;50.392;8.008;2023-12-29T13:28:27;10.40;99.90
3334;DHT22;1679;50.392;8.008;2023-12-29T13:30:54;10.40;99.90
3334;DHT22;1679;50.392;8.008;2023-12-29T13:33:56;10.40;99.90
3334;DHT22;1679;50.392;8.008;2023-12-29T13:36:46;10.40;99.90
3334;DHT22;1679;50.392;8.008;2023-12-29T13:39:29;10.30;99.90
3334;DHT22;1679;50.392;8.008;2023-12-29T13:41:57;10.30;99.90
3334;DHT22;1679;50.392;8.008;2023-12-29T13:44:26;10.30;99.90
3334;DHT22;1679;50.392;8.008;2023-12-29T13:46:53;10.30;99.90
3334;DHT22;1679;50.392;8.008;2023-12-29T13:49:20;10.30;99.90
3334;DHT22;1679;50.392;8.008;2023-12-29T13:51:45;10.30;99.90
3334;DHT22;1679;50.392;8.008;2023-12-29T13:54:11;10.30;99.90
3334;DHT22;1679;50.392;8.008;2023-12-29T13:56:36;10.20;99.90
3334;DHT22;1679;50.392;8.008;2023-12-29T13:59:03;10.20;99.90
3334;DHT22;1679;50.392;8.008;2023-12-29T14:01:36;10.20;99.90
3334;DHT22;1679;50.392;8.008;2023-12-29T14:04:06;10.20;99.90
3334;DHT22;1679;50.392;8.008;2023-12-29T14:06:43;10.20;99.90
3334;DHT22;1679;50.392;8.008;2023-12-29T14:09:15;10.20;99.90
3334;DHT22;1679;50.392;8.008;2023-12-29T14:11:48;10.20;99.90
3334;DHT22;1679;50.392;8.008;2023-12-29T14:14:21;10.20;99.90
3334;DHT22;1679;50.392;8.008;2023-12-29T14:16:47;10.20;99.90
3334;DHT22;1679;50.392;8.008;2023-12-29T14:19:13;10.20;99.90
3334;DHT22;1679;50.392;8.008;2023-12-29T14:21:38;10.20;99.90
3334;DHT22;1679;50.392;8.008;2023-12-29T14:24:14;10.20;99.90
3334;DHT22;1679;50.392;8.008;2023-12-29T14:29:20;10.30;99.90
3334;DHT22;1679;50.392;8.008;2023-12-29T14:31:47;10.30;99.90
3334;DHT22;1679;50.392;8.008;2023-12-29T14:34:13;10.30;99.90
3334;DHT22;1679;50.392;8.008;2023-12-29T14:36:41;10.30;99.90
3334;DHT22;1679;50.392;8.008;2023-12-29T14:39:07;10.30;99.90
3334;DHT22;1679;50.392;8.008;2023-12-29T14:41:33;10.40;99.90
3334;DHT22;1679;50.392;8.008;2023-12-29T14:43:59;10.40;99.90
3334;DHT22;1679;50.392;8.008;2023-12-29T14:46:25;10.30;99.90
3334;DHT22;1679;50.392;8.008;2023-12-29T14:48:52;10.30;99.90
3334;DHT22;1679;50.392;8.008;2023-12-29T14:51:17;10.30;99.90
3334;DHT22;1679;50.392;8.008;2023-12-29T14:53:44;10.30;99.90
3334;DHT22;1679;50.392;8.008;2023-12-29T14:56:10;10.30;99.90
3334;DHT22;1679;50.392;8.008;2023-12-29T14:58:36;10.30;99.90
3334;DHT22;1679;50.392;8.008;2023-12-29T15:01:02;10.30;99.90
3334;DHT22;1679;50.392;8.008;2023-12-29T15:03:28;10.30;99.90
3334;DHT22;1679;50.392;8.008;2023-12-29T15:05:54;10.30;99.90
3334;DHT22;1679;50.392;8.008;2023-12-29T15:08:20;10.20;99.90
3334;DHT22;1679;50.392;8.008;2023-12-29T15:10:45;10.20;99.90
3334;DHT22;1679;50.392;8.008;2023-12-29T15:13:11;10.20;99.90
3334;DHT22;1679;50.392;8.008;2023-12-29T15:15:38;10.20;99.90
3334;DHT22;1679;50.392;8.008;2023-12-29T15:18:04;10.20;99.90
3334;DHT22;1679;50.392;8.008;2023-12-29T15:20:30;10.20;99.90
3334;DHT22;1679;50.392;8.008;2023-12-29T15:22:55;10.20;99.90
3334;DHT22;1679;50.392;8.008;2023-12-29T15:25:22;10.10;99.90
3334;DHT22;1679;50.392;8.008;2023-12-29T15:27:49;10.10;99.90
3334;DHT22;1679;50.392;8.008;2023-12-29T15:30:15;10.10;99.90
3334;DHT22;1679;50.392;8.008;2023-12-29T15:32:40;10.10;99.90
3334;DHT22;1679;50.392;8.008;2023-12-29T15:35:06;10.10;99.90
3334;DHT22;1679;50.392;8.008;2023-12-29T15:37:32;10.00;99.90
3334;DHT22;1679;50.392;8.008;2023-12-29T15:39:57;10.00;99.90
3334;DHT22;1679;50.392;8.008;2023-12-29T15:42:26;10.00;99.90
3334;DHT22;1679;50.392;8.008;2023-12-29T15:44:52;9.90;99.90
3334;DHT22;1679;50.392;8.008;2023-12-29T15:47:19;9.90;99.90
3334;DHT22;1679;50.392;8.008;2023-12-29T15:49:44;9.90;99.90
3334;DHT22;1679;50.392;8.008;2023-12-29T15:52:10;9.90;99.90
3334;DHT22;1679;50.392;8.008;2023-12-29T15:54:35;9.90;99.90
3334;DHT22;1679;50.392;8.008;2023-12-29T15:57:01;9.90;99.90
3334;DHT22;1679;50.392;8.008;2023-12-29T15:59:32;9.80;99.90
3334;DHT22;1679;50.392;8.008;2023-12-29T16:01:58;9.80;99.90
3334;DHT22;1679;50.392;8.008;2023-12-29T16:04:24;9.80;99.90
3334;DHT22;1679;50.392;8.008;2023-12-29T16:06:50;9.80;99.90
3334;DHT22;1679;50.392;8.008;2023-12-29T16:09:15;9.80;99.90
3334;DHT22;1679;50.392;8.008;2023-12-29T16:11:41;9.80;99.90
3334;DHT22;1679;50.392;8.008;2023-12-29T16:14:06;9.80;99.90
3334;DHT22;1679;50.392;8.008;2023-12-29T16:16:32;9.80;99.90
3334;DHT22;1679;50.392;8.008;2023-12-29T16:18:58;9.80;99.90
3334;DHT22;1679;50.392;8.008;2023-12-29T16:21:24;9.80;99.90
3334;DHT22;1679;50.392;8.008;2023-12-29T16:23:51;9.80;99.90